sensor_id;sensor_type;location;lat;lon;timestamp;temperature;humidity
42245;DHT22;27912;51.828;5.688;2023-03-23T00:01:07;11.70;99.90
42245;DHT22;27912;51.828;5.688;2023-03-23T00:03:35;11.70;99.90
42245;DHT22;27912;51.828;5.688;2023-03-23T00:06:01;11.70;99.90
42245;DHT22;27912;51.828;5.688;2023-03-23T00:08:37;11.80;99.90
42245;DHT22;27912;51.828;5.688;2023-03-23T00:11:10;11.70;99.90
42245;DHT22;27912;51.828;5.688;2023-03-23T00:13:36;11.70;99.90
42245;DHT22;27912;51.828;5.688;2023-03-23T00:16:01;11.70;99.90
42245;DHT22;27912;51.828;5.688;2023-03-23T00:18:27;11.70;99.90
42245;DHT22;27912;51.828;5.688;2023-03-23T00:20:55;11.70;99.90
42245;DHT22;27912;51.828;5.688;2023-03-23T00:23:23;11.70;99.90
42245;DHT22;27912;51.828;5.688;2023-03-23T00:25:55;11.80;99.90
42245;DHT22;27912;51.828;5.688;2023-03-23T00:28:23;11.70;99.90
42245;DHT22;27912;51.828;5.688;2023-03-23T00:30:54;11.80;99.90
42245;DHT22;27912;51.828;5.688;2023-03-23T00:33:22;11.80;99.90
42245;DHT22;27912;51.828;5.688;2023-03-23T00:35:49;11.80;99.90
42245;DHT22;27912;51.828;5.688;2023-03-23T00:38:18;11.80;99.90
42245;DHT22;27912;51.828;5.688;2023-03-23T00:40:45;11.80;99.90
42245;DHT22;27912;51.828;5.688;2023-03-23T00:43:15;11.80;99.90
42245;DHT22;27912;51.828;5.688;2023-03-23T00:45:42;11.80;99.90
42245;DHT22;27912;51.828;5.688;2023-03-23T00:48:10;11.80;99.90
42245;DHT22;27912;51.828;5.688;2023-03-23T00:50:38;11.80;99.90
42245;DHT22;27912;51.828;5.688;2023-03-23T00:53:03;11.90;99.90
42245;DHT22;27912;51.828;5.688;2023-03-23T00:55:29;11.80;99.90
42245;DHT22;27912;51.828;5.688;2023-03-23T00:57:56;12.00;99.90
42245;DHT22;27912;51.828;5.688;2023-03-23T01:00:22;11.80;99.90
42245;DHT22;27912;51.828;5.688;2023-03-23T01:02:48;11.90;99.90
42245;DHT22;27912;51.828;5.688;2023-03-23T01:05:16;11.90;99.90
42245;DHT22;27912;51.828;5.688;2023-03-23T01:07:43;11.90;99.90
42245;DHT22;27912;51.828;5.688;2023-03-23T01:10:10;11.90;99.90
42245;DHT22;27912;51.828;5.688;2023-03-23T01:12:38;11.80;99.90
42245;DHT22;27912;51.828;5.688;2023-03-23T01:15:04;11.80;99.90
42245;DHT22;27912;51.828;5.688;2023-03-23T01:17:30;11.70;99.90
42245;DHT22;27912;51.828;5.688;2023-03-23T01:19:55;11.70;99.90
42245;DHT22;27912;51.828;5.688;2023-03-23T01:22:21;11.70;99.90
42245;DHT22;27912;51.828;5.688;2023-03-23T01:24:47;11.70;99.90
42245;DHT22;27912;51.828;5.688;2023-03-23T01:27:12;11.80;99.90
42245;DHT22;27912;51.828;5.688;2023-03-23T01:29:38;11.80;99.90
42245;DHT22;27912;51.828;5.688;2023-03-23T01:32:03;11.80;99.90
42245;DHT22;27912;51.828;5.688;2023-03-23T01:34:29;11.80;99.90
42245;DHT22;27912;51.828;5.688;2023-03-23T01:36:55;11.80;99.90
42245;DHT22;27912;51.828;5.688;2023-03-23T01:39:21;11.80;99.90
42245;DHT22;27912;51.828;5.688;2023-03-23T01:41:46;11.80;99.90
42245;DHT22;27912;51.828;5.688;2023-03-23T01:46:44;11.80;99.90
42245;DHT22;27912;51.828;5.688;2023-03-23T01:49:23;11.80;99.90
42245;DHT22;27912;51.828;5.688;2023-03-23T01:51:52;11.80;99.90
42245;DHT22;27912;51.828;5.688;2023-03-23T01:54:20;11.80;99.90
42245;DHT22;27912;51.828;5.688;2023-03-23T01:56:56;11.80;99.90
42245;DHT22;27912;51.828;5.688;2023-03-23T01:59:23;11.80;99.90
42245;DHT22;27912;51.828;5.688;2023-03-23T02:01:49;11.80;99.90
42245;DHT22;27912;51.828;5.688;2023-03-23T02:04:18;11.70;99.90
42245;DHT22;27912;51.828;5.688;2023-03-23T02:06:45;11.80;99.90
42245;DHT22;27912;51.828;5.688;2023-03-23T02:09:12;11.80;99.90
42245;DHT22;27912;51.828;5.688;2023-03-23T02:11:42;11.90;99.90
42245;DHT22;27912;51.828;5.688;2023-03-23T02:14:08;11.90;99.90
42245;DHT22;27912;51.828;5.688;2023-03-23T02:19:24;12.00;99.90
42245;DHT22;27912;51.828;5.688;2023-03-23T02:31:18;12.00;99.90
42245;DHT22;27912;51.828;5.688;2023-03-23T02:36:37;12.10;99.90
42245;DHT22;27912;51.828;5.688;2023-03-23T02:39:23;12.10;99.90
42245;DHT22;27912;51.828;5.688;2023-03-23T02:41:57;12.10;99.90
42245;DHT22;27912;51.828;5.688;2023-03-23T02:44:26;12.10;99.90
42245;DHT22;27912;51.828;5.688;2023-03-23T02:46:56;12.10;99.90
42245;DHT22;27912;51.828;5.688;2023-03-23T02:49:24;12.10;99.90
42245;DHT22;27912;51.828;5.688;2023-03-23T02:51:51;12.10;99.90
42245;DHT22;27912;51.828;5.688;2023-03-23T02:54:20;12.20;99.90
42245;DHT22;27912;51.828;5.688;2023-03-23T02:56:48;12.10;99.90
42245;DHT22;27912;51.828;5.688;2023-03-23T02:59:16;12.10;99.90
42245;DHT22;27912;51.828;5.688;2023-03-23T03:04:13;12.20;99.90
42245;DHT22;27912;51.828;5.688;2023-03-23T03:06:57;12.10;99.90
42245;DHT22;27912;51.828;5.688;2023-03-23T03:12:07;12.20;99.90
42245;DHT22;27912;51.828;5.688;2023-03-23T03:14:41;12.20;99.90
42245;DHT22;27912;51.828;5.688;2023-03-23T03:17:16;12.20;99.90
42245;DHT22;27912;51.828;5.688;2023-03-23T03:19:47;12.20;99.90
42245;DHT22;27912;51.828;5.688;2023-03-23T03:22:13;12.30;99.90
42245;DHT22;27912;51.828;5.688;2023-03-23T03:24:40;12.30;99.90
42245;DHT22;27912;51.828;5.688;2023-03-23T03:27:12;12.20;99.90
42245;DHT22;27912;51.828;5.688;2023-03-23T03:29:44;12.30;99.90
42245;DHT22;27912;51.828;5.688;2023-03-23T03:32:14;12.30;99.90
42245;DHT22;27912;51.828;5.688;2023-03-23T03:34:40;12.30;99.90
42245;DHT22;27912;51.828;5.688;2023-03-23T03:37:06;12.20;99.90
42245;DHT22;27912;51.828;5.688;2023-03-23T03:39:35;12.30;99.90
42245;DHT22;27912;51.828;5.688;2023-03-23T03:42:01;12.30;99.90
42245;DHT22;27912;51.828;5.688;2023-03-23T03:44:26;12.30;99.90
42245;DHT22;27912;51.828;5.688;2023-03-23T03:46:52;12.30;99.90
42245;DHT22;27912;51.828;5.688;2023-03-23T03:49:18;12.30;99.90
42245;DHT22;27912;51.828;5.688;2023-03-23T03:51:44;12.40;99.90
42245;DHT22;27912;51.828;5.688;2023-03-23T03:54:10;12.30;99.90
42245;DHT22;27912;51.828;5.688;2023-03-23T03:56:36;12.40;99.90
42245;DHT22;27912;51.828;5.688;2023-03-23T03:59:06;12.40;99.90
42245;DHT22;27912;51.828;5.688;2023-03-23T04:01:33;12.40;99.90
42245;DHT22;27912;51.828;5.688;2023-03-23T04:03:59;12.40;99.90
42245;DHT22;27912;51.828;5.688;2023-03-23T04:06:24;12.40;99.90
42245;DHT22;27912;51.828;5.688;2023-03-23T04:08:56;12.40;99.90
42245;DHT22;27912;51.828;5.688;2023-03-23T04:11:24;12.50;99.90
42245;DHT22;27912;51.828;5.688;2023-03-23T04:13:50;12.50;99.90
42245;DHT22;27912;51.828;5.688;2023-03-23T04:16:15;12.50;99.90
42245;DHT22;27912;51.828;5.688;2023-03-23T04:18:42;12.50;99.90
42245;DHT22;27912;51.828;5.688;2023-03-23T04:21:08;12.50;99.90
42245;DHT22;27912;51.828;5.688;2023-03-23T04:23:34;12.50;99.90
42245;DHT22;27912;51.828;5.688;2023-03-23T04:26:01;12.50;99.90
42245;DHT22;27912;51.828;5.688;2023-03-23T04:28:28;12.50;99.90
42245;DHT22;27912;51.828;5.688;2023-03-23T04:30:55;12.50;99.90
42245;DHT22;27912;51.828;5.688;2023-03-23T04:33:27;12.60;99.90
42245;DHT22;27912;51.828;5.688;2023-03-23T04:35:54;12.60;99.90
42245;DHT22;27912;51.828;5.688;2023-03-23T04:38:21;12.50;99.90
42245;DHT22;27912;51.828;5.688;2023-03-23T04:40:49;12.60;99.90
42245;DHT22;27912;51.828;5.688;2023-03-23T04:43:19;12.50;99.90
42245;DHT22;27912;51.828;5.688;2023-03-23T04:45:47;12.60;99.90
42245;DHT22;27912;51.828;5.688;2023-03-23T04:48:17;12.60;99.90
42245;DHT22;27912;51.828;5.688;2023-03-23T04:50:43;12.60;99.90
42245;DHT22;27912;51.828;5.688;2023-03-23T04:53:08;12.60;99.90
42245;DHT22;27912;51.828;5.688;2023-03-23T04:55:36;12.60;99.90
42245;DHT22;27912;51.828;5.688;2023-03-23T04:58:03;12.70;99.90
42245;DHT22;27912;51.828;5.688;2023-03-23T05:00:29;12.60;99.90
42245;DHT22;27912;51.828;5.688;2023-03-23T05:02:55;12.60;99.90
42245;DHT22;27912;51.828;5.688;2023-03-23T05:05:21;12.60;99.90
42245;DHT22;27912;51.828;5.688;2023-03-23T05:07:47;12.60;99.90
42245;DHT22;27912;51.828;5.688;2023-03-23T05:10:13;12.60;99.90
42245;DHT22;27912;51.828;5.688;2023-03-23T05:12:40;12.50;99.90
42245;DHT22;27912;51.828;5.688;2023-03-23T05:15:07;12.50;99.90
42245;DHT22;27912;51.828;5.688;2023-03-23T05:17:33;12.50;99.90
42245;DHT22;27912;51.828;5.688;2023-03-23T05:20:00;12.50;99.90
42245;DHT22;27912;51.828;5.688;2023-03-23T05:22:27;12.40;99.90
42245;DHT22;27912;51.828;5.688;2023-03-23T05:24:53;12.40;99.90
42245;DHT22;27912;51.828;5.688;2023-03-23T05:27:19;12.40;99.90
42245;DHT22;27912;51.828;5.688;2023-03-23T05:29:47;12.40;99.90
42245;DHT22;27912;51.828;5.688;2023-03-23T05:32:16;12.40;99.90
42245;DHT22;27912;51.828;5.688;2023-03-23T05:34:42;12.50;99.90
42245;DHT22;27912;51.828;5.688;2023-03-23T05:37:09;12.40;99.90
42245;DHT22;27912;51.828;5.688;2023-03-23T05:39:35;12.40;99.90
42245;DHT22;27912;51.828;5.688;2023-03-23T05:42:02;12.40;99.90
42245;DHT22;27912;51.828;5.688;2023-03-23T05:44:28;12.40;99.90
42245;DHT22;27912;51.828;5.688;2023-03-23T05:46:54;12.40;99.90
42245;DHT22;27912;51.828;5.688;2023-03-23T05:49:20;12.40;99.90
42245;DHT22;27912;51.828;5.688;2023-03-23T05:51:46;12.40;99.90
42245;DHT22;27912;51.828;5.688;2023-03-23T05:54:12;12.30;99.90
42245;DHT22;27912;51.828;5.688;2023-03-23T05:56:39;12.30;99.90
42245;DHT22;27912;51.828;5.688;2023-03-23T05:59:05;12.40;99.90
42245;DHT22;27912;51.828;5.688;2023-03-23T06:01:31;12.40;99.90
42245;DHT22;27912;51.828;5.688;2023-03-23T06:03:57;12.40;99.90
42245;DHT22;27912;51.828;5.688;2023-03-23T06:06:25;12.40;99.90
42245;DHT22;27912;51.828;5.688;2023-03-23T06:08:51;12.40;99.90
42245;DHT22;27912;51.828;5.688;2023-03-23T06:11:17;12.40;99.90
42245;DHT22;27912;51.828;5.688;2023-03-23T06:13:44;12.40;99.90
42245;DHT22;27912;51.828;5.688;2023-03-23T06:16:09;12.40;99.90
42245;DHT22;27912;51.828;5.688;2023-03-23T06:18:35;12.40;99.90
42245;DHT22;27912;51.828;5.688;2023-03-23T06:21:02;12.50;99.90
42245;DHT22;27912;51.828;5.688;2023-03-23T06:23:28;12.50;99.90
42245;DHT22;27912;51.828;5.688;2023-03-23T06:25:59;12.50;99.90
42245;DHT22;27912;51.828;5.688;2023-03-23T06:28:25;12.60;99.90
42245;DHT22;27912;51.828;5.688;2023-03-23T06:30:52;12.60;99.90
42245;DHT22;27912;51.828;5.688;2023-03-23T06:33:18;12.60;99.90
42245;DHT22;27912;51.828;5.688;2023-03-23T06:35:43;12.60;99.90
42245;DHT22;27912;51.828;5.688;2023-03-23T06:38:09;12.60;99.90
42245;DHT22;27912;51.828;5.688;2023-03-23T06:40:35;12.60;99.90
42245;DHT22;27912;51.828;5.688;2023-03-23T06:43:04;12.60;99.90
42245;DHT22;27912;51.828;5.688;2023-03-23T06:45:30;12.60;99.90
42245;DHT22;27912;51.828;5.688;2023-03-23T06:47:56;12.60;99.90
42245;DHT22;27912;51.828;5.688;2023-03-23T06:50:22;12.60;99.90
42245;DHT22;27912;51.828;5.688;2023-03-23T06:52:49;12.60;99.90
42245;DHT22;27912;51.828;5.688;2023-03-23T06:55:16;12.60;99.90
42245;DHT22;27912;51.828;5.688;2023-03-23T06:57:43;12.50;99.90
42245;DHT22;27912;51.828;5.688;2023-03-23T07:00:10;12.50;99.90
42245;DHT22;27912;51.828;5.688;2023-03-23T07:02:40;12.50;99.90
42245;DHT22;27912;51.828;5.688;2023-03-23T07:05:07;12.50;99.90
42245;DHT22;27912;51.828;5.688;2023-03-23T07:07:35;12.50;99.90
42245;DHT22;27912;51.828;5.688;2023-03-23T07:10:01;12.40;99.90
42245;DHT22;27912;51.828;5.688;2023-03-23T07:12:27;12.40;99.90
42245;DHT22;27912;51.828;5.688;2023-03-23T07:14:54;12.40;99.90
42245;DHT22;27912;51.828;5.688;2023-03-23T07:17:20;12.30;99.90
42245;DHT22;27912;51.828;5.688;2023-03-23T07:19:46;12.20;99.90
42245;DHT22;27912;51.828;5.688;2023-03-23T07:22:12;12.00;99.90
42245;DHT22;27912;51.828;5.688;2023-03-23T07:24:37;11.90;99.90
42245;DHT22;27912;51.828;5.688;2023-03-23T07:27:03;11.90;99.90
42245;DHT22;27912;51.828;5.688;2023-03-23T07:29:29;11.80;99.90
42245;DHT22;27912;51.828;5.688;2023-03-23T07:31:55;11.80;99.90
42245;DHT22;27912;51.828;5.688;2023-03-23T07:34:20;11.90;99.90
42245;DHT22;27912;51.828;5.688;2023-03-23T07:36:46;11.80;99.90
42245;DHT22;27912;51.828;5.688;2023-03-23T07:39:13;11.80;99.90
42245;DHT22;27912;51.828;5.688;2023-03-23T07:41:39;11.90;99.90
42245;DHT22;27912;51.828;5.688;2023-03-23T07:44:04;11.90;99.90
42245;DHT22;27912;51.828;5.688;2023-03-23T07:46:31;11.90;99.90
42245;DHT22;27912;51.828;5.688;2023-03-23T07:48:56;11.90;99.90
42245;DHT22;27912;51.828;5.688;2023-03-23T07:51:23;11.90;99.90
42245;DHT22;27912;51.828;5.688;2023-03-23T07:53:49;11.90;99.90
42245;DHT22;27912;51.828;5.688;2023-03-23T07:56:15;11.90;99.90
42245;DHT22;27912;51.828;5.688;2023-03-23T07:58:44;11.90;99.90
42245;DHT22;27912;51.828;5.688;2023-03-23T08:01:10;11.90;99.90
42245;DHT22;27912;51.828;5.688;2023-03-23T08:03:36;11.90;99.90
42245;DHT22;27912;51.828;5.688;2023-03-23T08:06:02;11.90;99.90
42245;DHT22;27912;51.828;5.688;2023-03-23T08:08:28;11.90;99.90
42245;DHT22;27912;51.828;5.688;2023-03-23T08:10:53;11.90;99.90
42245;DHT22;27912;51.828;5.688;2023-03-23T08:13:19;11.80;99.90
42245;DHT22;27912;51.828;5.688;2023-03-23T08:15:45;11.90;99.90
42245;DHT22;27912;51.828;5.688;2023-03-23T08:18:11;11.90;99.90
42245;DHT22;27912;51.828;5.688;2023-03-23T08:20:36;11.90;99.90
42245;DHT22;27912;51.828;5.688;2023-03-23T08:23:02;11.90;99.90
42245;DHT22;27912;51.828;5.688;2023-03-23T08:25:29;11.90;99.90
42245;DHT22;27912;51.828;5.688;2023-03-23T08:27:57;12.00;99.90
42245;DHT22;27912;51.828;5.688;2023-03-23T08:30:23;12.00;99.90
42245;DHT22;27912;51.828;5.688;2023-03-23T08:32:50;12.00;99.90
42245;DHT22;27912;51.828;5.688;2023-03-23T08:35:16;12.10;99.90
42245;DHT22;27912;51.828;5.688;2023-03-23T08:37:43;12.10;99.90
42245;DHT22;27912;51.828;5.688;2023-03-23T08:40:10;12.30;99.90
42245;DHT22;27912;51.828;5.688;2023-03-23T08:42:42;12.20;99.90
42245;DHT22;27912;51.828;5.688;2023-03-23T08:45:11;12.30;99.90
42245;DHT22;27912;51.828;5.688;2023-03-23T08:47:37;12.30;99.90
42245;DHT22;27912;51.828;5.688;2023-03-23T08:50:08;12.30;99.90
42245;DHT22;27912;51.828;5.688;2023-03-23T08:52:36;12.20;99.90
42245;DHT22;27912;51.828;5.688;2023-03-23T08:55:03;12.20;99.90
42245;DHT22;27912;51.828;5.688;2023-03-23T08:57:28;12.20;99.90
42245;DHT22;27912;51.828;5.688;2023-03-23T08:59:54;12.20;99.90
42245;DHT22;27912;51.828;5.688;2023-03-23T09:02:25;12.20;99.90
42245;DHT22;27912;51.828;5.688;2023-03-23T09:04:52;12.30;99.90
42245;DHT22;27912;51.828;5.688;2023-03-23T09:07:18;12.30;99.90
42245;DHT22;27912;51.828;5.688;2023-03-23T09:09:44;12.30;99.90
42245;DHT22;27912;51.828;5.688;2023-03-23T09:12:10;12.30;99.90
42245;DHT22;27912;51.828;5.688;2023-03-23T09:14:37;12.40;99.90
42245;DHT22;27912;51.828;5.688;2023-03-23T09:17:04;12.40;99.90
42245;DHT22;27912;51.828;5.688;2023-03-23T09:19:31;12.50;99.90
42245;DHT22;27912;51.828;5.688;2023-03-23T09:21:59;12.60;99.90
42245;DHT22;27912;51.828;5.688;2023-03-23T09:24:25;12.70;99.90
42245;DHT22;27912;51.828;5.688;2023-03-23T09:26:51;12.70;99.90
42245;DHT22;27912;51.828;5.688;2023-03-23T09:29:17;12.70;99.90
42245;DHT22;27912;51.828;5.688;2023-03-23T09:31:44;12.70;99.90
42245;DHT22;27912;51.828;5.688;2023-03-23T09:34:12;12.70;99.90
42245;DHT22;27912;51.828;5.688;2023-03-23T09:36:38;12.70;99.90
42245;DHT22;27912;51.828;5.688;2023-03-23T09:39:05;12.80;99.90
42245;DHT22;27912;51.828;5.688;2023-03-23T09:44:39;13.00;99.90
42245;DHT22;27912;51.828;5.688;2023-03-23T09:47:19;13.00;99.90
42245;DHT22;27912;51.828;5.688;2023-03-23T09:49:55;13.10;99.90
42245;DHT22;27912;51.828;5.688;2023-03-23T09:52:21;13.10;99.90
42245;DHT22;27912;51.828;5.688;2023-03-23T09:54:50;13.10;99.90
42245;DHT22;27912;51.828;5.688;2023-03-23T10:00:10;13.20;99.90
42245;DHT22;27912;51.828;5.688;2023-03-23T10:02:48;13.20;99.90
42245;DHT22;27912;51.828;5.688;2023-03-23T10:07:49;13.30;99.90
42245;DHT22;27912;51.828;5.688;2023-03-23T10:10:14;13.30;99.90
42245;DHT22;27912;51.828;5.688;2023-03-23T10:13:04;13.50;99.90
42245;DHT22;27912;51.828;5.688;2023-03-23T10:15:36;13.60;99.90
42245;DHT22;27912;51.828;5.688;2023-03-23T10:18:12;13.60;99.90
42245;DHT22;27912;51.828;5.688;2023-03-23T10:20:59;13.60;99.90
42245;DHT22;27912;51.828;5.688;2023-03-23T10:23:36;13.60;99.90
42245;DHT22;27912;51.828;5.688;2023-03-23T10:28:57;13.90;99.90
42245;DHT22;27912;51.828;5.688;2023-03-23T10:31:28;14.00;99.90
42245;DHT22;27912;51.828;5.688;2023-03-23T10:33:59;13.90;99.90
42245;DHT22;27912;51.828;5.688;2023-03-23T10:36:31;13.90;99.90
42245;DHT22;27912;51.828;5.688;2023-03-23T10:39:12;13.90;99.90
42245;DHT22;27912;51.828;5.688;2023-03-23T10:41:39;14.00;99.90
42245;DHT22;27912;51.828;5.688;2023-03-23T10:44:21;14.00;99.90
42245;DHT22;27912;51.828;5.688;2023-03-23T10:46:56;14.10;99.90
42245;DHT22;27912;51.828;5.688;2023-03-23T10:49:30;14.20;99.90
42245;DHT22;27912;51.828;5.688;2023-03-23T10:57:39;14.10;99.90
42245;DHT22;27912;51.828;5.688;2023-03-23T11:02:58;14.20;99.90
42245;DHT22;27912;51.828;5.688;2023-03-23T11:05:31;14.10;99.90
42245;DHT22;27912;51.828;5.688;2023-03-23T11:07:59;14.00;99.90
42245;DHT22;27912;51.828;5.688;2023-03-23T11:10:38;14.00;99.90
42245;DHT22;27912;51.828;5.688;2023-03-23T11:13:04;14.10;99.90
42245;DHT22;27912;51.828;5.688;2023-03-23T11:15:37;14.20;99.90
42245;DHT22;27912;51.828;5.688;2023-03-23T11:18:18;14.30;99.90
42245;DHT22;27912;51.828;5.688;2023-03-23T11:20:46;14.40;99.90
42245;DHT22;27912;51.828;5.688;2023-03-23T11:23:22;14.60;99.90
42245;DHT22;27912;51.828;5.688;2023-03-23T11:25:58;15.00;99.90
42245;DHT22;27912;51.828;5.688;2023-03-23T11:28:33;15.30;99.90
42245;DHT22;27912;51.828;5.688;2023-03-23T11:31:01;15.40;99.90
42245;DHT22;27912;51.828;5.688;2023-03-23T11:36:32;15.70;99.90
42245;DHT22;27912;51.828;5.688;2023-03-23T11:38:58;15.60;99.90
42245;DHT22;27912;51.828;5.688;2023-03-23T11:41:25;15.50;99.90
42245;DHT22;27912;51.828;5.688;2023-03-23T11:43:53;15.50;99.90
42245;DHT22;27912;51.828;5.688;2023-03-23T11:46:26;15.40;99.90
42245;DHT22;27912;51.828;5.688;2023-03-23T11:48:57;15.40;99.90
42245;DHT22;27912;51.828;5.688;2023-03-23T11:51:33;15.50;99.90
42245;DHT22;27912;51.828;5.688;2023-03-23T11:54:32;15.60;99.90
42245;DHT22;27912;51.828;5.688;2023-03-23T11:56:59;15.80;99.90
42245;DHT22;27912;51.828;5.688;2023-03-23T11:59:32;15.90;99.90
42245;DHT22;27912;51.828;5.688;2023-03-23T12:05:26;16.20;99.90
42245;DHT22;27912;51.828;5.688;2023-03-23T12:10:42;16.50;99.90
42245;DHT22;27912;51.828;5.688;2023-03-23T12:21:44;16.70;99.90
42245;DHT22;27912;51.828;5.688;2023-03-23T12:27:45;16.60;99.90
42245;DHT22;27912;51.828;5.688;2023-03-23T12:36:04;16.50;99.90
42245;DHT22;27912;51.828;5.688;2023-03-23T12:43:59;16.70;99.90
42245;DHT22;27912;51.828;5.688;2023-03-23T12:54:36;16.50;99.90
42245;DHT22;27912;51.828;5.688;2023-03-23T12:57:24;16.40;99.90
42245;DHT22;27912;51.828;5.688;2023-03-23T13:00:20;16.30;99.90
42245;DHT22;27912;51.828;5.688;2023-03-23T13:03:11;16.10;99.90
42245;DHT22;27912;51.828;5.688;2023-03-23T13:05:44;15.90;99.90
42245;DHT22;27912;51.828;5.688;2023-03-23T13:08:18;15.80;99.90
42245;DHT22;27912;51.828;5.688;2023-03-23T13:10:50;15.50;99.90
42245;DHT22;27912;51.828;5.688;2023-03-23T13:13:23;15.00;99.90
42245;DHT22;27912;51.828;5.688;2023-03-23T13:15:53;14.40;99.90
42245;DHT22;27912;51.828;5.688;2023-03-23T13:23:33;12.60;99.90
42245;DHT22;27912;51.828;5.688;2023-03-23T13:26:10;12.50;99.90
42245;DHT22;27912;51.828;5.688;2023-03-23T13:28:58;12.70;99.90
42245;DHT22;27912;51.828;5.688;2023-03-23T13:31:37;12.90;99.90
42245;DHT22;27912;51.828;5.688;2023-03-23T13:36:43;13.30;99.90
42245;DHT22;27912;51.828;5.688;2023-03-23T13:39:24;13.40;99.90
42245;DHT22;27912;51.828;5.688;2023-03-23T13:44:56;13.80;99.90
42245;DHT22;27912;51.828;5.688;2023-03-23T13:47:26;14.00;99.90
42245;DHT22;27912;51.828;5.688;2023-03-23T13:49:56;14.10;99.90
42245;DHT22;27912;51.828;5.688;2023-03-23T13:52:23;14.30;99.90
42245;DHT22;27912;51.828;5.688;2023-03-23T13:54:50;14.50;99.90
42245;DHT22;27912;51.828;5.688;2023-03-23T13:59:48;14.60;99.90
42245;DHT22;27912;51.828;5.688;2023-03-23T14:02:39;14.70;99.90
42245;DHT22;27912;51.828;5.688;2023-03-23T14:10:17;14.90;99.90
42245;DHT22;27912;51.828;5.688;2023-03-23T14:12:45;14.90;99.90
42245;DHT22;27912;51.828;5.688;2023-03-23T14:15:13;14.80;99.90
42245;DHT22;27912;51.828;5.688;2023-03-23T14:17:44;14.70;99.90
42245;DHT22;27912;51.828;5.688;2023-03-23T14:20:25;14.40;99.90
42245;DHT22;27912;51.828;5.688;2023-03-23T14:22:55;14.20;99.90
42245;DHT22;27912;51.828;5.688;2023-03-23T14:25:22;14.10;99.90
42245;DHT22;27912;51.828;5.688;2023-03-23T14:27:51;14.20;99.90
42245;DHT22;27912;51.828;5.688;2023-03-23T14:30:21;14.30;99.90
42245;DHT22;27912;51.828;5.688;2023-03-23T14:32:48;14.50;99.90
42245;DHT22;27912;51.828;5.688;2023-03-23T14:37:45;14.80;99.90
42245;DHT22;27912;51.828;5.688;2023-03-23T14:40:15;14.80;99.90
42245;DHT22;27912;51.828;5.688;2023-03-23T14:42:41;14.80;99.90
42245;DHT22;27912;51.828;5.688;2023-03-23T14:45:12;14.80;99.90
42245;DHT22;27912;51.828;5.688;2023-03-23T14:47:43;14.80;99.90
42245;DHT22;27912;51.828;5.688;2023-03-23T14:50:49;14.90;99.90
42245;DHT22;27912;51.828;5.688;2023-03-23T14:53:23;15.20;99.90
42245;DHT22;27912;51.828;5.688;2023-03-23T14:55:51;15.50;99.90
42245;DHT22;27912;51.828;5.688;2023-03-23T14:58:22;15.60;99.90
42245;DHT22;27912;51.828;5.688;2023-03-23T15:01:05;15.90;99.90
42245;DHT22;27912;51.828;5.688;2023-03-23T15:03:41;16.10;99.90
42245;DHT22;27912;51.828;5.688;2023-03-23T15:06:14;16.10;99.90
42245;DHT22;27912;51.828;5.688;2023-03-23T15:08:40;16.10;99.90
42245;DHT22;27912;51.828;5.688;2023-03-23T15:11:39;16.00;99.90
42245;DHT22;27912;51.828;5.688;2023-03-23T15:14:29;16.00;99.90
42245;DHT22;27912;51.828;5.688;2023-03-23T15:16:57;16.00;99.90
42245;DHT22;27912;51.828;5.688;2023-03-23T15:19:26;16.00;99.90
42245;DHT22;27912;51.828;5.688;2023-03-23T15:21:55;16.10;99.90
42245;DHT22;27912;51.828;5.688;2023-03-23T15:26:54;16.20;99.90
42245;DHT22;27912;51.828;5.688;2023-03-23T15:29:27;16.20;99.90
42245;DHT22;27912;51.828;5.688;2023-03-23T15:31:54;16.20;99.90
42245;DHT22;27912;51.828;5.688;2023-03-23T15:34:32;16.10;99.90
42245;DHT22;27912;51.828;5.688;2023-03-23T15:37:03;16.00;99.90
42245;DHT22;27912;51.828;5.688;2023-03-23T15:39:31;15.90;99.90
42245;DHT22;27912;51.828;5.688;2023-03-23T15:41:59;15.80;99.90
42245;DHT22;27912;51.828;5.688;2023-03-23T15:44:32;15.90;99.90
42245;DHT22;27912;51.828;5.688;2023-03-23T15:47:10;16.00;99.90
42245;DHT22;27912;51.828;5.688;2023-03-23T15:49:37;16.10;99.90
42245;DHT22;27912;51.828;5.688;2023-03-23T15:52:03;16.10;99.90
42245;DHT22;27912;51.828;5.688;2023-03-23T15:54:30;16.00;99.90
42245;DHT22;27912;51.828;5.688;2023-03-23T15:56:57;16.00;99.90
42245;DHT22;27912;51.828;5.688;2023-03-23T15:59:23;15.80;99.90
42245;DHT22;27912;51.828;5.688;2023-03-23T16:01:49;15.70;99.90
42245;DHT22;27912;51.828;5.688;2023-03-23T16:04:16;15.60;99.90
42245;DHT22;27912;51.828;5.688;2023-03-23T16:06:43;15.50;99.90
42245;DHT22;27912;51.828;5.688;2023-03-23T16:09:18;15.50;99.90
42245;DHT22;27912;51.828;5.688;2023-03-23T16:11:44;15.50;99.90
42245;DHT22;27912;51.828;5.688;2023-03-23T16:14:10;15.50;99.90
42245;DHT22;27912;51.828;5.688;2023-03-23T16:16:37;15.60;99.90
42245;DHT22;27912;51.828;5.688;2023-03-23T16:19:03;15.70;99.90
42245;DHT22;27912;51.828;5.688;2023-03-23T16:21:30;15.70;99.90
42245;DHT22;27912;51.828;5.688;2023-03-23T16:23:56;15.70;99.90
42245;DHT22;27912;51.828;5.688;2023-03-23T16:26:22;15.80;99.90
42245;DHT22;27912;51.828;5.688;2023-03-23T16:28:48;15.70;99.90
42245;DHT22;27912;51.828;5.688;2023-03-23T16:31:13;15.70;99.90
42245;DHT22;27912;51.828;5.688;2023-03-23T16:33:39;15.60;99.90
42245;DHT22;27912;51.828;5.688;2023-03-23T16:36:10;15.50;99.90
42245;DHT22;27912;51.828;5.688;2023-03-23T16:38:36;15.40;99.90
42245;DHT22;27912;51.828;5.688;2023-03-23T16:41:02;15.20;99.90
42245;DHT22;27912;51.828;5.688;2023-03-23T16:43:28;15.20;99.90
42245;DHT22;27912;51.828;5.688;2023-03-23T16:45:55;15.00;99.90
42245;DHT22;27912;51.828;5.688;2023-03-23T16:48:21;15.00;99.90
42245;DHT22;27912;51.828;5.688;2023-03-23T16:50:47;14.90;99.90
42245;DHT22;27912;51.828;5.688;2023-03-23T16:53:14;14.80;99.90
42245;DHT22;27912;51.828;5.688;2023-03-23T16:55:40;14.80;99.90
42245;DHT22;27912;51.828;5.688;2023-03-23T16:58:08;14.70;99.90
42245;DHT22;27912;51.828;5.688;2023-03-23T17:00:34;14.60;99.90
42245;DHT22;27912;51.828;5.688;2023-03-23T17:02:59;14.60;99.90
42245;DHT22;27912;51.828;5.688;2023-03-23T17:05:27;14.50;99.90
42245;DHT22;27912;51.828;5.688;2023-03-23T17:07:54;14.50;99.90
42245;DHT22;27912;51.828;5.688;2023-03-23T17:10:21;14.50;99.90
42245;DHT22;27912;51.828;5.688;2023-03-23T17:12:47;14.50;99.90
42245;DHT22;27912;51.828;5.688;2023-03-23T17:15:13;14.50;99.90
42245;DHT22;27912;51.828;5.688;2023-03-23T17:17:38;14.50;99.90
42245;DHT22;27912;51.828;5.688;2023-03-23T17:20:05;14.40;99.90
42245;DHT22;27912;51.828;5.688;2023-03-23T17:22:32;14.30;99.90
42245;DHT22;27912;51.828;5.688;2023-03-23T17:24:58;14.30;99.90
42245;DHT22;27912;51.828;5.688;2023-03-23T17:27:24;14.20;99.90